sensor_id;sensor_type;location;lat;lon;timestamp;P1;durP1;ratioP1;P2;durP2;ratioP2
31308;SDS011;17936;52.446;10.840;2023-03-23T00:01:04;4.75;;;1.35;;
31308;SDS011;17936;52.446;10.840;2023-03-23T00:03:31;3.20;;;1.02;;
31308;SDS011;17936;52.446;10.840;2023-03-23T00:05:57;2.65;;;1.02;;
31308;SDS011;17936;52.446;10.840;2023-03-23T00:08:29;2.88;;;1.33;;
31308;SDS011;17936;52.446;10.840;2023-03-23T00:11:02;2.00;;;0.93;;
31308;SDS011;17936;52.446;10.840;2023-03-23T00:13:29;4.35;;;1.20;;
31308;SDS011;17936;52.446;10.840;2023-03-23T00:15:56;2.90;;;1.02;;
31308;SDS011;17936;52.446;10.840;2023-03-23T00:18:22;4.43;;;1.13;;
31308;SDS011;17936;52.446;10.840;2023-03-23T00:20:52;3.03;;;1.15;;
31308;SDS011;17936;52.446;10.840;2023-03-23T00:23:20;3.53;;;1.02;;
31308;SDS011;17936;52.446;10.840;2023-03-23T00:25:52;3.63;;;1.45;;
31308;SDS011;17936;52.446;10.840;2023-03-23T00:28:21;4.72;;;1.65;;
31308;SDS011;17936;52.446;10.840;2023-03-23T00:30:59;1.98;;;0.98;;
31308;SDS011;17936;52.446;10.840;2023-03-23T00:33:28;3.80;;;1.33;;
31308;SDS011;17936;52.446;10.840;2023-03-23T00:35:58;3.75;;;1.27;;
31308;SDS011;17936;52.446;10.840;2023-03-23T00:38:24;5.13;;;1.10;;
31308;SDS011;17936;52.446;10.840;2023-03-23T00:40:50;4.78;;;1.50;;
31308;SDS011;17936;52.446;10.840;2023-03-23T00:43:16;4.50;;;1.42;;
31308;SDS011;17936;52.446;10.840;2023-03-23T00:45:43;3.42;;;0.98;;
31308;SDS011;17936;52.446;10.840;2023-03-23T00:48:10;3.58;;;1.35;;
31308;SDS011;17936;52.446;10.840;2023-03-23T00:50:37;6.15;;;1.23;;
31308;SDS011;17936;52.446;10.840;2023-03-23T00:53:03;1.80;;;0.93;;
31308;SDS011;17936;52.446;10.840;2023-03-23T00:55:29;4.72;;;1.20;;
31308;SDS011;17936;52.446;10.840;2023-03-23T00:57:55;4.45;;;1.05;;
31308;SDS011;17936;52.446;10.840;2023-03-23T01:00:21;4.00;;;1.35;;
31308;SDS011;17936;52.446;10.840;2023-03-23T01:02:48;2.58;;;1.10;;
31308;SDS011;17936;52.446;10.840;2023-03-23T01:05:16;3.28;;;1.30;;
31308;SDS011;17936;52.446;10.840;2023-03-23T01:07:42;2.58;;;1.30;;
31308;SDS011;17936;52.446;10.840;2023-03-23T01:10:10;3.60;;;1.40;;
31308;SDS011;17936;52.446;10.840;2023-03-23T01:12:46;3.10;;;1.55;;
31308;SDS011;17936;52.446;10.840;2023-03-23T01:15:15;3.17;;;1.33;;
31308;SDS011;17936;52.446;10.840;2023-03-23T01:17:42;3.83;;;1.42;;
31308;SDS011;17936;52.446;10.840;2023-03-23T01:20:09;2.85;;;1.15;;
31308;SDS011;17936;52.446;10.840;2023-03-23T01:22:36;2.50;;;1.20;;
31308;SDS011;17936;52.446;10.840;2023-03-23T01:25:03;3.20;;;1.20;;
31308;SDS011;17936;52.446;10.840;2023-03-23T01:27:29;3.85;;;1.05;;
31308;SDS011;17936;52.446;10.840;2023-03-23T01:29:55;3.10;;;1.20;;
31308;SDS011;17936;52.446;10.840;2023-03-23T01:32:20;4.65;;;0.90;;
31308;SDS011;17936;52.446;10.840;2023-03-23T01:34:46;5.95;;;1.23;;
31308;SDS011;17936;52.446;10.840;2023-03-23T01:37:11;3.13;;;1.20;;
31308;SDS011;17936;52.446;10.840;2023-03-23T01:39:37;1.77;;;1.00;;
31308;SDS011;17936;52.446;10.840;2023-03-23T01:42:03;5.65;;;1.02;;
31308;SDS011;17936;52.446;10.840;2023-03-23T01:46:55;7.03;;;1.20;;
31308;SDS011;17936;52.446;10.840;2023-03-23T01:49:24;2.80;;;1.05;;
31308;SDS011;17936;52.446;10.840;2023-03-23T01:52:00;3.00;;;0.88;;
31308;SDS011;17936;52.446;10.840;2023-03-23T01:54:33;3.38;;;1.20;;
31308;SDS011;17936;52.446;10.840;2023-03-23T01:57:01;7.35;;;1.50;;
31308;SDS011;17936;52.446;10.840;2023-03-23T01:59:29;3.20;;;1.30;;
31308;SDS011;17936;52.446;10.840;2023-03-23T02:01:56;2.25;;;1.05;;
31308;SDS011;17936;52.446;10.840;2023-03-23T02:04:23;5.38;;;1.25;;
31308;SDS011;17936;52.446;10.840;2023-03-23T02:06:50;1.90;;;1.05;;
31308;SDS011;17936;52.446;10.840;2023-03-23T02:09:18;8.68;;;1.40;;
31308;SDS011;17936;52.446;10.840;2023-03-23T02:11:44;2.33;;;1.10;;
31308;SDS011;17936;52.446;10.840;2023-03-23T02:14:10;4.18;;;1.23;;
31308;SDS011;17936;52.446;10.840;2023-03-23T02:16:45;5.55;;;1.33;;
31308;SDS011;17936;52.446;10.840;2023-03-23T02:30:10;3.63;;;1.35;;
31308;SDS011;17936;52.446;10.840;2023-03-23T02:35:48;5.45;;;1.58;;
31308;SDS011;17936;52.446;10.840;2023-03-23T02:38:23;5.00;;;1.27;;
31308;SDS011;17936;52.446;10.840;2023-03-23T02:41:03;2.03;;;1.20;;
31308;SDS011;17936;52.446;10.840;2023-03-23T02:43:31;2.88;;;1.40;;
31308;SDS011;17936;52.446;10.840;2023-03-23T02:46:05;4.18;;;1.30;;
31308;SDS011;17936;52.446;10.840;2023-03-23T02:48:33;3.50;;;1.23;;
31308;SDS011;17936;52.446;10.840;2023-03-23T02:51:00;6.10;;;1.30;;
31308;SDS011;17936;52.446;10.840;2023-03-23T02:53:28;4.18;;;1.17;;
31308;SDS011;17936;52.446;10.840;2023-03-23T02:55:55;4.50;;;1.20;;
31308;SDS011;17936;52.446;10.840;2023-03-23T02:58:23;5.60;;;1.42;;
31308;SDS011;17936;52.446;10.840;2023-03-23T03:00:49;7.93;;;1.35;;
31308;SDS011;17936;52.446;10.840;2023-03-23T03:03:16;2.38;;;1.13;;
31308;SDS011;17936;52.446;10.840;2023-03-23T03:11:11;2.05;;;0.98;;
31308;SDS011;17936;52.446;10.840;2023-03-23T03:13:46;6.30;;;1.55;;
31308;SDS011;17936;52.446;10.840;2023-03-23T03:16:23;2.80;;;1.40;;
31308;SDS011;17936;52.446;10.840;2023-03-23T03:19:15;1.67;;;1.00;;
31308;SDS011;17936;52.446;10.840;2023-03-23T03:21:50;2.95;;;1.27;;
31308;SDS011;17936;52.446;10.840;2023-03-23T03:24:18;3.95;;;1.33;;
31308;SDS011;17936;52.446;10.840;2023-03-23T03:26:46;3.50;;;1.10;;
31308;SDS011;17936;52.446;10.840;2023-03-23T03:29:16;2.20;;;1.27;;
31308;SDS011;17936;52.446;10.840;2023-03-23T03:31:47;2.50;;;1.20;;
31308;SDS011;17936;52.446;10.840;2023-03-23T03:34:16;5.55;;;1.35;;
31308;SDS011;17936;52.446;10.840;2023-03-23T03:36:45;3.75;;;1.40;;
31308;SDS011;17936;52.446;10.840;2023-03-23T03:39:13;2.63;;;1.27;;
31308;SDS011;17936;52.446;10.840;2023-03-23T03:41:42;3.80;;;1.30;;
31308;SDS011;17936;52.446;10.840;2023-03-23T03:44:08;5.10;;;1.73;;
31308;SDS011;17936;52.446;10.840;2023-03-23T03:46:35;4.43;;;1.30;;
31308;SDS011;17936;52.446;10.840;2023-03-23T03:49:02;3.55;;;1.50;;
31308;SDS011;17936;52.446;10.840;2023-03-23T03:51:29;4.95;;;1.50;;
31308;SDS011;17936;52.446;10.840;2023-03-23T03:53:55;2.67;;;1.23;;
31308;SDS011;17936;52.446;10.840;2023-03-23T03:56:21;7.15;;;1.60;;
31308;SDS011;17936;52.446;10.840;2023-03-23T03:58:48;3.25;;;1.52;;
31308;SDS011;17936;52.446;10.840;2023-03-23T04:01:15;1.60;;;1.15;;
31308;SDS011;17936;52.446;10.840;2023-03-23T04:03:42;1.63;;;1.00;;
31308;SDS011;17936;52.446;10.840;2023-03-23T04:06:08;4.05;;;1.20;;
31308;SDS011;17936;52.446;10.840;2023-03-23T04:08:35;1.85;;;1.15;;
31308;SDS011;17936;52.446;10.840;2023-03-23T04:11:02;4.32;;;1.48;;
31308;SDS011;17936;52.446;10.840;2023-03-23T04:13:29;2.50;;;1.15;;
31308;SDS011;17936;52.446;10.840;2023-03-23T04:15:55;2.45;;;1.38;;
31308;SDS011;17936;52.446;10.840;2023-03-23T04:18:20;3.17;;;1.13;;
31308;SDS011;17936;52.446;10.840;2023-03-23T04:20:47;2.38;;;1.23;;
31308;SDS011;17936;52.446;10.840;2023-03-23T04:23:14;4.07;;;1.35;;
31308;SDS011;17936;52.446;10.840;2023-03-23T04:25:44;3.63;;;1.55;;
31308;SDS011;17936;52.446;10.840;2023-03-23T04:28:11;3.55;;;1.35;;
31308;SDS011;17936;52.446;10.840;2023-03-23T04:30:37;4.68;;;1.55;;
31308;SDS011;17936;52.446;10.840;2023-03-23T04:33:03;2.20;;;1.10;;
31308;SDS011;17936;52.446;10.840;2023-03-23T04:35:29;1.10;;;0.93;;
31308;SDS011;17936;52.446;10.840;2023-03-23T04:37:55;4.97;;;2.20;;
31308;SDS011;17936;52.446;10.840;2023-03-23T04:40:21;3.45;;;1.70;;
31308;SDS011;17936;52.446;10.840;2023-03-23T04:42:48;4.07;;;1.80;;
31308;SDS011;17936;52.446;10.840;2023-03-23T04:45:17;4.63;;;1.80;;
31308;SDS011;17936;52.446;10.840;2023-03-23T04:47:46;5.05;;;1.60;;
31308;SDS011;17936;52.446;10.840;2023-03-23T04:50:22;4.93;;;2.30;;
31308;SDS011;17936;52.446;10.840;2023-03-23T04:52:50;6.50;;;2.22;;
31308;SDS011;17936;52.446;10.840;2023-03-23T04:55:16;4.20;;;2.05;;
31308;SDS011;17936;52.446;10.840;2023-03-23T04:57:43;5.72;;;2.15;;
31308;SDS011;17936;52.446;10.840;2023-03-23T05:00:09;5.88;;;1.85;;
31308;SDS011;17936;52.446;10.840;2023-03-23T05:02:41;9.20;;;1.92;;
31308;SDS011;17936;52.446;10.840;2023-03-23T05:05:08;4.30;;;1.90;;
31308;SDS011;17936;52.446;10.840;2023-03-23T05:07:36;3.70;;;1.65;;
31308;SDS011;17936;52.446;10.840;2023-03-23T05:10:02;4.88;;;1.60;;
31308;SDS011;17936;52.446;10.840;2023-03-23T05:12:29;4.57;;;1.70;;
31308;SDS011;17936;52.446;10.840;2023-03-23T05:14:54;2.85;;;1.40;;
31308;SDS011;17936;52.446;10.840;2023-03-23T05:17:20;3.88;;;1.60;;
31308;SDS011;17936;52.446;10.840;2023-03-23T05:19:49;2.47;;;1.63;;
31308;SDS011;17936;52.446;10.840;2023-03-23T05:22:16;4.78;;;1.55;;
31308;SDS011;17936;52.446;10.840;2023-03-23T05:24:42;4.10;;;1.40;;
31308;SDS011;17936;52.446;10.840;2023-03-23T05:27:08;4.10;;;1.80;;
31308;SDS011;17936;52.446;10.840;2023-03-23T05:29:35;4.38;;;1.40;;
31308;SDS011;17936;52.446;10.840;2023-03-23T05:32:04;4.32;;;1.50;;
31308;SDS011;17936;52.446;10.840;2023-03-23T05:34:30;2.90;;;1.65;;
31308;SDS011;17936;52.446;10.840;2023-03-23T05:36:59;4.80;;;1.65;;
31308;SDS011;17936;52.446;10.840;2023-03-23T05:39:26;4.20;;;1.40;;
31308;SDS011;17936;52.446;10.840;2023-03-23T05:41:53;6.80;;;1.80;;
31308;SDS011;17936;52.446;10.840;2023-03-23T05:44:19;5.90;;;1.55;;
31308;SDS011;17936;52.446;10.840;2023-03-23T05:46:45;10.18;;;1.67;;
31308;SDS011;17936;52.446;10.840;2023-03-23T05:49:12;4.70;;;1.70;;
31308;SDS011;17936;52.446;10.840;2023-03-23T05:51:44;3.83;;;1.60;;
31308;SDS011;17936;52.446;10.840;2023-03-23T05:54:11;6.25;;;2.00;;
31308;SDS011;17936;52.446;10.840;2023-03-23T05:56:39;5.95;;;1.73;;
31308;SDS011;17936;52.446;10.840;2023-03-23T05:59:05;4.32;;;1.58;;
31308;SDS011;17936;52.446;10.840;2023-03-23T06:01:30;3.38;;;1.50;;
31308;SDS011;17936;52.446;10.840;2023-03-23T06:03:57;3.30;;;1.60;;
31308;SDS011;17936;52.446;10.840;2023-03-23T06:06:24;3.63;;;1.40;;
31308;SDS011;17936;52.446;10.840;2023-03-23T06:08:54;3.13;;;1.30;;
31308;SDS011;17936;52.446;10.840;2023-03-23T06:11:22;6.30;;;1.33;;
31308;SDS011;17936;52.446;10.840;2023-03-23T06:13:49;2.22;;;1.00;;
31308;SDS011;17936;52.446;10.840;2023-03-23T06:16:15;2.78;;;1.13;;
31308;SDS011;17936;52.446;10.840;2023-03-23T06:18:40;3.55;;;1.20;;
31308;SDS011;17936;52.446;10.840;2023-03-23T06:21:07;2.55;;;1.38;;
31308;SDS011;17936;52.446;10.840;2023-03-23T06:23:34;3.45;;;1.17;;
31308;SDS011;17936;52.446;10.840;2023-03-23T06:26:03;3.00;;;1.40;;
31308;SDS011;17936;52.446;10.840;2023-03-23T06:28:30;5.03;;;1.23;;
31308;SDS011;17936;52.446;10.840;2023-03-23T06:30:58;3.28;;;1.67;;
31308;SDS011;17936;52.446;10.840;2023-03-23T06:33:30;2.08;;;1.20;;
31308;SDS011;17936;52.446;10.840;2023-03-23T06:35:57;2.53;;;1.17;;
31308;SDS011;17936;52.446;10.840;2023-03-23T06:38:22;4.75;;;1.25;;
31308;SDS011;17936;52.446;10.840;2023-03-23T06:40:48;4.50;;;1.67;;
31308;SDS011;17936;52.446;10.840;2023-03-23T06:43:20;2.40;;;1.35;;
31308;SDS011;17936;52.446;10.840;2023-03-23T06:45:46;3.03;;;1.50;;
31308;SDS011;17936;52.446;10.840;2023-03-23T06:48:11;6.10;;;1.73;;
31308;SDS011;17936;52.446;10.840;2023-03-23T06:50:38;2.72;;;1.45;;
31308;SDS011;17936;52.446;10.840;2023-03-23T06:53:03;3.67;;;1.20;;
31308;SDS011;17936;52.446;10.840;2023-03-23T06:55:29;3.33;;;1.25;;
31308;SDS011;17936;52.446;10.840;2023-03-23T06:57:55;3.72;;;1.40;;
31308;SDS011;17936;52.446;10.840;2023-03-23T07:00:21;4.65;;;1.48;;
31308;SDS011;17936;52.446;10.840;2023-03-23T07:02:46;2.72;;;1.30;;
31308;SDS011;17936;52.446;10.840;2023-03-23T07:05:12;3.40;;;1.25;;
31308;SDS011;17936;52.446;10.840;2023-03-23T07:07:41;3.05;;;1.30;;
31308;SDS011;17936;52.446;10.840;2023-03-23T07:10:07;3.47;;;1.05;;
31308;SDS011;17936;52.446;10.840;2023-03-23T07:12:34;4.57;;;0.90;;
31308;SDS011;17936;52.446;10.840;2023-03-23T07:15:01;2.88;;;1.20;;
31308;SDS011;17936;52.446;10.840;2023-03-23T07:17:27;3.42;;;1.23;;
31308;SDS011;17936;52.446;10.840;2023-03-23T07:19:53;2.55;;;0.90;;
31308;SDS011;17936;52.446;10.840;2023-03-23T07:22:19;2.63;;;0.90;;
31308;SDS011;17936;52.446;10.840;2023-03-23T07:24:45;1.65;;;0.75;;
31308;SDS011;17936;52.446;10.840;2023-03-23T07:27:11;3.45;;;0.90;;
31308;SDS011;17936;52.446;10.840;2023-03-23T07:29:36;1.77;;;0.85;;
31308;SDS011;17936;52.446;10.840;2023-03-23T07:32:03;1.00;;;0.80;;
31308;SDS011;17936;52.446;10.840;2023-03-23T07:34:30;2.15;;;0.90;;
31308;SDS011;17936;52.446;10.840;2023-03-23T07:36:56;2.83;;;1.05;;
31308;SDS011;17936;52.446;10.840;2023-03-23T07:39:22;2.67;;;0.90;;
31308;SDS011;17936;52.446;10.840;2023-03-23T07:41:48;1.85;;;1.10;;
31308;SDS011;17936;52.446;10.840;2023-03-23T07:44:14;5.10;;;1.10;;
31308;SDS011;17936;52.446;10.840;2023-03-23T07:46:40;5.55;;;0.90;;
31308;SDS011;17936;52.446;10.840;2023-03-23T07:49:07;2.03;;;1.00;;
31308;SDS011;17936;52.446;10.840;2023-03-23T07:51:33;2.97;;;1.00;;
31308;SDS011;17936;52.446;10.840;2023-03-23T07:53:59;2.72;;;1.40;;
31308;SDS011;17936;52.446;10.840;2023-03-23T07:56:28;3.63;;;1.10;;
31308;SDS011;17936;52.446;10.840;2023-03-23T07:58:53;4.00;;;1.10;;
31308;SDS011;17936;52.446;10.840;2023-03-23T08:01:19;2.22;;;1.13;;
31308;SDS011;17936;52.446;10.840;2023-03-23T08:03:45;3.63;;;1.38;;
31308;SDS011;17936;52.446;10.840;2023-03-23T08:06:11;7.28;;;1.15;;
31308;SDS011;17936;52.446;10.840;2023-03-23T08:08:37;5.05;;;1.17;;
31308;SDS011;17936;52.446;10.840;2023-03-23T08:11:05;2.35;;;1.08;;
31308;SDS011;17936;52.446;10.840;2023-03-23T08:13:31;1.85;;;0.90;;
31308;SDS011;17936;52.446;10.840;2023-03-23T08:15:58;2.60;;;1.30;;
31308;SDS011;17936;52.446;10.840;2023-03-23T08:18:25;2.20;;;1.20;;
31308;SDS011;17936;52.446;10.840;2023-03-23T08:20:51;3.80;;;1.10;;
31308;SDS011;17936;52.446;10.840;2023-03-23T08:23:17;2.00;;;1.13;;
31308;SDS011;17936;52.446;10.840;2023-03-23T08:25:43;1.42;;;0.95;;
31308;SDS011;17936;52.446;10.840;2023-03-23T08:28:09;4.32;;;1.17;;
31308;SDS011;17936;52.446;10.840;2023-03-23T08:30:34;4.40;;;1.20;;
31308;SDS011;17936;52.446;10.840;2023-03-23T08:33:03;5.63;;;1.05;;
31308;SDS011;17936;52.446;10.840;2023-03-23T08:35:30;3.17;;;1.20;;
31308;SDS011;17936;52.446;10.840;2023-03-23T08:37:55;2.50;;;1.13;;
31308;SDS011;17936;52.446;10.840;2023-03-23T08:40:22;3.53;;;1.38;;
31308;SDS011;17936;52.446;10.840;2023-03-23T08:42:49;1.75;;;0.95;;
31308;SDS011;17936;52.446;10.840;2023-03-23T08:45:17;3.28;;;1.25;;
31308;SDS011;17936;52.446;10.840;2023-03-23T08:47:45;2.05;;;1.20;;
31308;SDS011;17936;52.446;10.840;2023-03-23T08:50:15;3.13;;;1.30;;
31308;SDS011;17936;52.446;10.840;2023-03-23T08:52:42;3.65;;;1.17;;
31308;SDS011;17936;52.446;10.840;2023-03-23T08:55:08;3.63;;;1.30;;
31308;SDS011;17936;52.446;10.840;2023-03-23T08:57:35;2.00;;;1.10;;
31308;SDS011;17936;52.446;10.840;2023-03-23T09:00:01;2.55;;;1.25;;
31308;SDS011;17936;52.446;10.840;2023-03-23T09:02:38;1.48;;;0.88;;
31308;SDS011;17936;52.446;10.840;2023-03-23T09:05:04;1.92;;;1.17;;
31308;SDS011;17936;52.446;10.840;2023-03-23T09:07:29;2.97;;;1.40;;
31308;SDS011;17936;52.446;10.840;2023-03-23T09:09:55;2.75;;;1.08;;
31308;SDS011;17936;52.446;10.840;2023-03-23T09:12:21;1.73;;;0.80;;
31308;SDS011;17936;52.446;10.840;2023-03-23T09:14:46;3.53;;;1.38;;
31308;SDS011;17936;52.446;10.840;2023-03-23T09:17:13;1.58;;;1.08;;
31308;SDS011;17936;52.446;10.840;2023-03-23T09:19:39;2.78;;;1.30;;
31308;SDS011;17936;52.446;10.840;2023-03-23T09:22:05;3.53;;;1.40;;
31308;SDS011;17936;52.446;10.840;2023-03-23T09:24:30;3.75;;;0.88;;
31308;SDS011;17936;52.446;10.840;2023-03-23T09:26:56;1.88;;;1.02;;
31308;SDS011;17936;52.446;10.840;2023-03-23T09:29:23;3.15;;;1.08;;
31308;SDS011;17936;52.446;10.840;2023-03-23T09:31:50;1.45;;;0.80;;
31308;SDS011;17936;52.446;10.840;2023-03-23T09:34:15;2.35;;;1.08;;
31308;SDS011;17936;52.446;10.840;2023-03-23T09:36:42;3.45;;;1.30;;
31308;SDS011;17936;52.446;10.840;2023-03-23T09:39:08;2.80;;;1.13;;
31308;SDS011;17936;52.446;10.840;2023-03-23T09:49:40;2.20;;;1.10;;
31308;SDS011;17936;52.446;10.840;2023-03-23T09:52:13;4.55;;;1.00;;
31308;SDS011;17936;52.446;10.840;2023-03-23T09:54:50;4.43;;;1.10;;
31308;SDS011;17936;52.446;10.840;2023-03-23T09:57:26;2.53;;;1.40;;
31308;SDS011;17936;52.446;10.840;2023-03-23T10:00:01;2.03;;;1.15;;
31308;SDS011;17936;52.446;10.840;2023-03-23T10:03:05;2.22;;;1.10;;
31308;SDS011;17936;52.446;10.840;2023-03-23T10:05:40;3.75;;;1.10;;
31308;SDS011;17936;52.446;10.840;2023-03-23T10:08:17;3.75;;;1.38;;
31308;SDS011;17936;52.446;10.840;2023-03-23T10:16:20;5.82;;;1.08;;
31308;SDS011;17936;52.446;10.840;2023-03-23T10:18:52;3.63;;;1.45;;
31308;SDS011;17936;52.446;10.840;2023-03-23T10:21:24;5.03;;;1.27;;
31308;SDS011;17936;52.446;10.840;2023-03-23T10:23:53;5.90;;;1.17;;
31308;SDS011;17936;52.446;10.840;2023-03-23T10:29:21;3.83;;;1.25;;
31308;SDS011;17936;52.446;10.840;2023-03-23T10:35:14;3.53;;;1.83;;
31308;SDS011;17936;52.446;10.840;2023-03-23T10:37:52;5.15;;;1.27;;
31308;SDS011;17936;52.446;10.840;2023-03-23T10:40:25;3.88;;;1.20;;
31308;SDS011;17936;52.446;10.840;2023-03-23T10:42:52;2.33;;;1.08;;
31308;SDS011;17936;52.446;10.840;2023-03-23T10:45:24;5.35;;;1.08;;
31308;SDS011;17936;52.446;10.840;2023-03-23T10:47:56;5.65;;;2.20;;
31308;SDS011;17936;52.446;10.840;2023-03-23T10:50:30;7.38;;;1.85;;
31308;SDS011;17936;52.446;10.840;2023-03-23T10:52:57;7.53;;;1.60;;
31308;SDS011;17936;52.446;10.840;2023-03-23T10:55:34;3.85;;;1.20;;
31308;SDS011;17936;52.446;10.840;2023-03-23T10:58:06;12.23;;;3.20;;
31308;SDS011;17936;52.446;10.840;2023-03-23T11:00:40;3.92;;;1.60;;
31308;SDS011;17936;52.446;10.840;2023-03-23T11:05:42;2.05;;;1.10;;
31308;SDS011;17936;52.446;10.840;2023-03-23T11:08:20;3.92;;;1.23;;
31308;SDS011;17936;52.446;10.840;2023-03-23T11:13:18;3.67;;;1.30;;
31308;SDS011;17936;52.446;10.840;2023-03-23T11:15:45;4.10;;;1.58;;
31308;SDS011;17936;52.446;10.840;2023-03-23T11:18:13;3.30;;;1.20;;
31308;SDS011;17936;52.446;10.840;2023-03-23T11:20:45;6.43;;;1.20;;
31308;SDS011;17936;52.446;10.840;2023-03-23T11:23:22;3.95;;;1.35;;
31308;SDS011;17936;52.446;10.840;2023-03-23T11:26:01;7.07;;;1.38;;
31308;SDS011;17936;52.446;10.840;2023-03-23T11:28:37;4.13;;;1.08;;
31308;SDS011;17936;52.446;10.840;2023-03-23T11:31:17;5.72;;;1.23;;
31308;SDS011;17936;52.446;10.840;2023-03-23T11:33:50;6.35;;;1.67;;
31308;SDS011;17936;52.446;10.840;2023-03-23T11:36:27;7.30;;;1.70;;
31308;SDS011;17936;52.446;10.840;2023-03-23T11:38:58;4.95;;;0.98;;
31308;SDS011;17936;52.446;10.840;2023-03-23T11:41:25;4.93;;;1.42;;
31308;SDS011;17936;52.446;10.840;2023-03-23T11:43:57;5.20;;;1.38;;
31308;SDS011;17936;52.446;10.840;2023-03-23T11:52:10;5.00;;;1.30;;
31308;SDS011;17936;52.446;10.840;2023-03-23T11:54:42;3.78;;;1.15;;
31308;SDS011;17936;52.446;10.840;2023-03-23T11:57:14;5.95;;;1.70;;
31308;SDS011;17936;52.446;10.840;2023-03-23T11:59:41;7.40;;;1.63;;
31308;SDS011;17936;52.446;10.840;2023-03-23T12:04:57;5.55;;;1.38;;
31308;SDS011;17936;52.446;10.840;2023-03-23T12:15:39;8.02;;;1.52;;
31308;SDS011;17936;52.446;10.840;2023-03-23T12:21:14;5.18;;;1.30;;
31308;SDS011;17936;52.446;10.840;2023-03-23T12:26:39;2.92;;;1.55;;
31308;SDS011;17936;52.446;10.840;2023-03-23T12:31:59;5.47;;;1.15;;
31308;SDS011;17936;52.446;10.840;2023-03-23T12:48:12;6.07;;;1.35;;
31308;SDS011;17936;52.446;10.840;2023-03-23T12:50:47;4.95;;;1.50;;
31308;SDS011;17936;52.446;10.840;2023-03-23T12:53:29;5.63;;;1.73;;
31308;SDS011;17936;52.446;10.840;2023-03-23T12:56:10;7.47;;;1.60;;
31308;SDS011;17936;52.446;10.840;2023-03-23T12:58:48;8.02;;;2.08;;
31308;SDS011;17936;52.446;10.840;2023-03-23T13:01:26;5.68;;;1.58;;
31308;SDS011;17936;52.446;10.840;2023-03-23T13:04:17;4.82;;;1.40;;
31308;SDS011;17936;52.446;10.840;2023-03-23T13:06:47;6.47;;;1.67;;
31308;SDS011;17936;52.446;10.840;2023-03-23T13:09:19;7.15;;;1.33;;
31308;SDS011;17936;52.446;10.840;2023-03-23T13:11:57;5.07;;;1.40;;
31308;SDS011;17936;52.446;10.840;2023-03-23T13:20:34;7.20;;;2.00;;
31308;SDS011;17936;52.446;10.840;2023-03-23T13:25:18;6.90;;;1.95;;
31308;SDS011;17936;52.446;10.840;2023-03-23T13:28:00;6.78;;;1.58;;
31308;SDS011;17936;52.446;10.840;2023-03-23T13:30:29;6.53;;;1.98;;
31308;SDS011;17936;52.446;10.840;2023-03-23T13:33:02;6.97;;;1.48;;
31308;SDS011;17936;52.446;10.840;2023-03-23T13:35:37;8.50;;;1.88;;
31308;SDS011;17936;52.446;10.840;2023-03-23T13:38:13;4.35;;;1.55;;
31308;SDS011;17936;52.446;10.840;2023-03-23T13:40:49;6.07;;;1.45;;
31308;SDS011;17936;52.446;10.840;2023-03-23T13:43:30;6.47;;;1.35;;
31308;SDS011;17936;52.446;10.840;2023-03-23T13:46:08;4.78;;;1.58;;
31308;SDS011;17936;52.446;10.840;2023-03-23T13:48:45;3.95;;;1.48;;
31308;SDS011;17936;52.446;10.840;2023-03-23T13:56:58;2.95;;;0.80;;
31308;SDS011;17936;52.446;10.840;2023-03-23T13:59:35;2.63;;;0.73;;
31308;SDS011;17936;52.446;10.840;2023-03-23T14:02:29;5.53;;;1.15;;
31308;SDS011;17936;52.446;10.840;2023-03-23T14:05:07;3.80;;;1.10;;
31308;SDS011;17936;52.446;10.840;2023-03-23T14:10:34;5.00;;;1.00;;
31308;SDS011;17936;52.446;10.840;2023-03-23T14:13:10;4.30;;;1.27;;
31308;SDS011;17936;52.446;10.840;2023-03-23T14:15:42;4.40;;;1.25;;
31308;SDS011;17936;52.446;10.840;2023-03-23T14:18:13;3.45;;;1.00;;
31308;SDS011;17936;52.446;10.840;2023-03-23T14:20:41;4.47;;;1.13;;
31308;SDS011;17936;52.446;10.840;2023-03-23T14:23:17;3.08;;;0.95;;
31308;SDS011;17936;52.446;10.840;2023-03-23T14:25:44;3.15;;;0.98;;
31308;SDS011;17936;52.446;10.840;2023-03-23T14:28:19;4.63;;;1.00;;
31308;SDS011;17936;52.446;10.840;2023-03-23T14:30:47;2.60;;;0.90;;
31308;SDS011;17936;52.446;10.840;2023-03-23T14:33:17;2.00;;;0.63;;
31308;SDS011;17936;52.446;10.840;2023-03-23T14:35:46;2.78;;;0.80;;
31308;SDS011;17936;52.446;10.840;2023-03-23T14:38:20;1.63;;;1.10;;
31308;SDS011;17936;52.446;10.840;2023-03-23T14:40:54;4.72;;;0.80;;
31308;SDS011;17936;52.446;10.840;2023-03-23T14:43:25;8.70;;;1.35;;
31308;SDS011;17936;52.446;10.840;2023-03-23T14:45:52;3.25;;;0.52;;
31308;SDS011;17936;52.446;10.840;2023-03-23T14:48:20;2.25;;;0.55;;
31308;SDS011;17936;52.446;10.840;2023-03-23T14:50:50;4.78;;;0.50;;
31308;SDS011;17936;52.446;10.840;2023-03-23T14:53:24;4.05;;;0.63;;
31308;SDS011;17936;52.446;10.840;2023-03-23T14:55:54;3.25;;;0.57;;
31308;SDS011;17936;52.446;10.840;2023-03-23T14:58:21;1.73;;;0.38;;
31308;SDS011;17936;52.446;10.840;2023-03-23T15:00:52;0.52;;;0.25;;
31308;SDS011;17936;52.446;10.840;2023-03-23T15:03:19;0.90;;;0.38;;
31308;SDS011;17936;52.446;10.840;2023-03-23T15:05:48;1.55;;;0.35;;
31308;SDS011;17936;52.446;10.840;2023-03-23T15:08:50;2.90;;;0.28;;
31308;SDS011;17936;52.446;10.840;2023-03-23T15:13:45;2.08;;;0.60;;
31308;SDS011;17936;52.446;10.840;2023-03-23T15:16:19;4.10;;;0.63;;
31308;SDS011;17936;52.446;10.840;2023-03-23T15:18:49;5.13;;;0.70;;
31308;SDS011;17936;52.446;10.840;2023-03-23T15:21:27;4.85;;;0.90;;
31308;SDS011;17936;52.446;10.840;2023-03-23T15:23:55;4.15;;;1.13;;
31308;SDS011;17936;52.446;10.840;2023-03-23T15:26:26;4.95;;;1.30;;
31308;SDS011;17936;52.446;10.840;2023-03-23T15:29:01;5.75;;;1.40;;
31308;SDS011;17936;52.446;10.840;2023-03-23T15:31:53;3.42;;;0.88;;
31308;SDS011;17936;52.446;10.840;2023-03-23T15:34:30;2.72;;;0.73;;
31308;SDS011;17936;52.446;10.840;2023-03-23T15:37:00;2.08;;;0.90;;
31308;SDS011;17936;52.446;10.840;2023-03-23T15:39:27;2.75;;;0.60;;
31308;SDS011;17936;52.446;10.840;2023-03-23T15:41:55;2.47;;;1.08;;
31308;SDS011;17936;52.446;10.840;2023-03-23T15:44:26;4.15;;;1.27;;
31308;SDS011;17936;52.446;10.840;2023-03-23T15:47:03;3.97;;;0.70;;
31308;SDS011;17936;52.446;10.840;2023-03-23T15:49:42;1.20;;;0.70;;
31308;SDS011;17936;52.446;10.840;2023-03-23T15:52:10;2.40;;;0.90;;
31308;SDS011;17936;52.446;10.840;2023-03-23T15:54:38;6.00;;;1.10;;
31308;SDS011;17936;52.446;10.840;2023-03-23T15:57:10;3.78;;;0.90;;
31308;SDS011;17936;52.446;10.840;2023-03-23T15:59:36;1.63;;;0.70;;
31308;SDS011;17936;52.446;10.840;2023-03-23T16:02:01;4.07;;;1.02;;
31308;SDS011;17936;52.446;10.840;2023-03-23T16:04:28;2.40;;;0.68;;
31308;SDS011;17936;52.446;10.840;2023-03-23T16:06:55;2.42;;;0.63;;
31308;SDS011;17936;52.446;10.840;2023-03-23T16:09:23;1.83;;;0.65;;
31308;SDS011;17936;52.446;10.840;2023-03-23T16:11:48;2.25;;;0.70;;
31308;SDS011;17936;52.446;10.840;2023-03-23T16:14:14;2.67;;;1.00;;
31308;SDS011;17936;52.446;10.840;2023-03-23T16:16:44;3.65;;;0.90;;
31308;SDS011;17936;52.446;10.840;2023-03-23T16:19:12;2.30;;;0.82;;
31308;SDS011;17936;52.446;10.840;2023-03-23T16:21:38;5.22;;;1.85;;
31308;SDS011;17936;52.446;10.840;2023-03-23T16:24:05;2.30;;;0.88;;
31308;SDS011;17936;52.446;10.840;2023-03-23T16:26:31;2.95;;;1.00;;
31308;SDS011;17936;52.446;10.840;2023-03-23T16:28:56;1.85;;;0.90;;
31308;SDS011;17936;52.446;10.840;2023-03-23T16:31:22;4.18;;;0.93;;